Time;durP1;ratioP1;P1;durP2;ratioP2;P2;SDS_P1;SDS_P2;PMS_P1;PMS_P2;Temp;Humidity;BMP_temperature;BMP_pressure;BME280_temperature;BME280_humidity;BME280_pressure;Samples;Min_cycle;Max_cycle;Signal;HPM_P1;HPM_P2
2021/03/31 00:02:01;;;;;;;20.37;14.50;;;9.60;99.90;;;;;;5000714;28;20219;-77
2021/03/31 00:04:28;;;;;;;21.23;15.30;;;9.60;99.90;;;;;;5000397;28;20253;-76
2021/03/31 00:06:54;;;;;;;19.53;14.27;;;9.60;99.90;;;;;;5006012;28;20206;-77
2021/03/31 00:09:20;;;;;;;22.03;16.63;;;9.50;99.90;;;;;;5020691;28;20191;-77
2021/03/31 00:11:47;;;;;;;21.63;15.50;;;9.50;99.90;;;;;;5018770;28;20211;-77
2021/03/31 00:14:14;;;;;;;23.63;17.33;;;9.40;99.90;;;;;;5020999;28;20656;-76
2021/03/31 00:16:41;;;;;;;20.30;14.93;;;9.40;99.90;;;;;;5020857;28;20288;-77
2021/03/31 00:19:07;;;;;;;22.07;16.00;;;9.30;99.90;;;;;;5008876;28;20214;-76
2021/03/31 00:21:34;;;;;;;22.90;16.50;;;9.30;99.90;;;;;;5000246;28;20203;-77
2021/03/31 00:24:00;;;;;;;22.10;15.40;;;9.30;99.90;;;;;;5001247;28;20203;-77
2021/03/31 00:26:26;;;;;;;21.23;15.37;;;9.20;99.90;;;;;;5000726;28;20207;-76
2021/03/31 00:28:54;;;;;;;19.33;14.57;;;9.20;99.90;;;;;;5001303;28;20211;-76
2021/03/31 00:31:20;;;;;;;20.37;14.43;;;9.10;99.90;;;;;;5000953;28;20204;-78
2021/03/31 00:33:46;;;;;;;21.97;15.83;;;9.10;99.90;;;;;;5002350;28;20211;-77
2021/03/31 00:36:13;;;;;;;19.80;14.70;;;9.10;99.90;;;;;;5004314;28;20235;-77
2021/03/31 00:38:39;;;;;;;20.03;15.00;;;9.10;99.90;;;;;;5003506;28;20195;-77
2021/03/31 00:41:06;;;;;;;21.60;15.40;;;9.00;99.90;;;;;;5004308;28;20242;-77
2021/03/31 00:43:32;;;;;;;19.90;13.93;;;9.00;99.90;;;;;;5003875;28;20211;-78
2021/03/31 00:46:00;;;;;;;21.17;15.37;;;8.90;99.90;;;;;;5004653;28;20869;-77
2021/03/31 00:48:27;;;;;;;21.83;14.93;;;8.90;99.90;;;;;;5004451;28;20196;-77
2021/03/31 00:50:55;;;;;;;20.03;15.17;;;8.90;99.90;;;;;;5004127;28;20277;-77
2021/03/31 00:53:26;;;;;;;20.63;15.03;;;8.80;99.90;;;;;;5004246;28;21058;-75
2021/03/31 00:55:53;;;;;;;21.67;15.03;;;8.80;99.90;;;;;;5004627;28;20243;-78
2021/03/31 00:58:19;;;;;;;20.47;15.33;;;8.70;99.90;;;;;;4986970;28;20210;-76
2021/03/31 01:00:46;;;;;;;17.07;12.67;;;8.70;99.90;;;;;;5018403;28;20217;-79
2021/03/31 01:03:14;;;;;;;25.20;17.40;;;8.70;99.90;;;;;;5022727;28;20214;-77
2021/03/31 01:05:41;;;;;;;22.20;16.33;;;8.60;99.90;;;;;;5023987;28;20198;-76
2021/03/31 01:08:07;;;;;;;21.37;15.43;;;8.60;99.90;;;;;;5012458;28;20273;-76
2021/03/31 01:10:36;;;;;;;18.87;14.87;;;8.60;99.90;;;;;;5003848;28;20203;-76
2021/03/31 01:13:27;;;;;;;20.80;15.23;;;8.50;99.90;;;;;;5003846;28;20207;-77
2021/03/31 01:15:59;;;;;;;19.30;14.80;;;8.50;99.90;;;;;;5004218;28;20206;-76
2021/03/31 01:18:32;;;;;;;17.80;13.10;;;8.50;99.90;;;;;;5002857;28;20207;-76
2021/03/31 01:21:38;;;;;;;19.83;14.03;;;8.40;99.90;;;;;;5003743;28;20273;-77
2021/03/31 01:24:51;;;;;;;19.57;14.60;;;8.40;99.90;;;;;;5003912;28;20265;-77
2021/03/31 01:27:19;;;;;;;21.87;15.23;;;8.30;99.90;;;;;;5002661;28;20206;-77
2021/03/31 01:30:01;;;;;;;21.80;15.70;;;8.30;99.90;;;;;;5003655;28;20229;-77
2021/03/31 01:33:07;;;;;;;23.03;16.47;;;8.30;99.90;;;;;;5003415;28;20203;-75
2021/03/31 01:35:34;;;;;;;21.03;15.10;;;8.20;99.90;;;;;;5003073;28;20598;-78
2021/03/31 01:38:03;;;;;;;21.20;15.20;;;8.20;99.90;;;;;;5003970;28;20234;-78
2021/03/31 01:40:35;;;;;;;20.33;14.90;;;8.10;99.90;;;;;;5003177;28;20219;-76
2021/03/31 01:43:04;;;;;;;26.57;17.23;;;8.10;99.90;;;;;;5002499;28;20214;-78
2021/03/31 01:45:33;;;;;;;24.20;16.23;;;8.10;99.90;;;;;;5002775;28;20215;-75
2021/03/31 01:48:03;;;;;;;21.20;16.63;;;8.10;99.90;;;;;;5002871;28;20657;-77
2021/03/31 01:50:32;;;;;;;22.80;15.57;;;8.00;99.90;;;;;;5002299;28;20586;-76
2021/03/31 01:53:00;;;;;;;23.00;16.00;;;8.00;99.90;;;;;;5003628;28;20218;-77
2021/03/31 01:55:28;;;;;;;21.70;15.63;;;8.00;99.90;;;;;;5002867;28;20246;-76
2021/03/31 01:57:55;;;;;;;22.53;16.07;;;7.90;99.90;;;;;;5003399;28;20242;-76
2021/03/31 02:00:22;;;;;;;23.07;15.77;;;7.90;99.90;;;;;;5003023;28;20214;-77
2021/03/31 02:02:51;;;;;;;23.97;16.20;;;7.90;99.90;;;;;;5001953;28;20238;-78
2021/03/31 02:05:18;;;;;;;23.27;17.53;;;7.90;99.90;;;;;;5002824;28;20192;-76
2021/03/31 02:07:46;;;;;;;26.07;17.83;;;7.90;99.90;;;;;;5013484;28;20207;-76
2021/03/31 02:10:15;;;;;;;22.13;16.40;;;7.90;99.90;;;;;;5014780;28;20291;-77
2021/03/31 02:12:42;;;;;;;24.53;17.67;;;7.80;99.90;;;;;;5002408;28;20677;-77
2021/03/31 02:15:10;;;;;;;24.13;17.03;;;7.80;99.90;;;;;;5002937;28;20603;-77
2021/03/31 02:17:38;;;;;;;25.97;18.03;;;7.80;99.90;;;;;;5002336;28;20230;-76
2021/03/31 02:20:06;;;;;;;24.10;18.30;;;7.70;99.90;;;;;;5002827;28;20215;-76
2021/03/31 02:22:34;;;;;;;22.93;16.17;;;7.70;99.90;;;;;;5001890;28;20969;-76
2021/03/31 02:25:01;;;;;;;24.10;17.13;;;7.70;99.90;;;;;;5002648;28;20203;-77
2021/03/31 02:27:28;;;;;;;21.73;16.00;;;7.70;99.90;;;;;;5021827;28;20198;-76
2021/03/31 02:29:55;;;;;;;23.53;16.20;;;7.60;99.90;;;;;;5022515;28;20209;-77
2021/03/31 02:32:23;;;;;;;24.40;16.50;;;7.60;99.90;;;;;;5021227;28;20242;-77
2021/03/31 02:34:52;;;;;;;21.67;15.33;;;7.60;99.90;;;;;;5019667;28;20203;-76
2021/03/31 02:37:20;;;;;;;22.73;15.93;;;7.60;99.90;;;;;;5002707;28;20227;-74
2021/03/31 02:39:47;;;;;;;24.27;17.03;;;7.60;99.90;;;;;;5001614;28;20207;-76
2021/03/31 02:42:16;;;;;;;21.23;15.23;;;7.50;99.90;;;;;;5002285;28;20209;-76
2021/03/31 02:44:47;;;;;;;27.63;17.97;;;7.50;99.90;;;;;;5001323;28;20207;-76
2021/03/31 02:47:15;;;;;;;24.60;17.10;;;7.50;99.90;;;;;;5001800;28;20214;-77
2021/03/31 02:49:45;;;;;;;21.47;16.10;;;7.50;99.90;;;;;;5002168;28;20217;-77
2021/03/31 02:52:12;;;;;;;21.07;15.63;;;7.40;99.90;;;;;;5001725;28;20211;-77
2021/03/31 02:54:41;;;;;;;21.73;16.10;;;7.40;99.90;;;;;;5012866;28;20207;-77
2021/03/31 02:57:10;;;;;;;22.57;15.93;;;7.40;99.90;;;;;;5021467;28;20230;-77
2021/03/31 02:59:39;;;;;;;20.90;15.37;;;7.30;99.90;;;;;;5021632;28;20286;-77
2021/03/31 03:02:06;;;;;;;24.50;16.37;;;7.30;99.90;;;;;;5015904;28;20218;-77
2021/03/31 03:04:33;;;;;;;20.90;15.07;;;7.30;99.90;;;;;;5001773;28;20604;-77
2021/03/31 03:06:59;;;;;;;21.97;14.33;;;7.30;99.90;;;;;;5002398;28;20206;-77
2021/03/31 03:09:26;;;;;;;19.40;14.57;;;7.30;99.90;;;;;;5001851;28;20199;-76
2021/03/31 03:11:53;;;;;;;20.03;13.87;;;7.30;99.90;;;;;;5002314;28;20207;-77
2021/03/31 03:14:20;;;;;;;22.83;16.27;;;7.30;99.90;;;;;;5013489;28;20202;-77
2021/03/31 03:16:47;;;;;;;24.53;16.53;;;7.20;99.90;;;;;;5003459;28;20609;-77
2021/03/31 03:19:14;;;;;;;21.47;15.23;;;7.20;99.90;;;;;;5000553;28;20218;-77
2021/03/31 03:21:41;;;;;;;23.30;15.73;;;7.20;99.90;;;;;;5013878;28;20229;-77
2021/03/31 03:24:12;;;;;;;20.67;15.47;;;7.10;99.90;;;;;;5021996;28;20207;-77
2021/03/31 03:26:39;;;;;;;21.93;15.57;;;7.10;99.90;;;;;;5021741;28;20199;-77
2021/03/31 03:29:07;;;;;;;23.93;16.17;;;7.10;99.90;;;;;;5004090;28;20210;-77
2021/03/31 03:31:34;;;;;;;24.03;15.43;;;7.00;99.90;;;;;;5001243;28;20206;-77
2021/03/31 03:34:01;;;;;;;23.60;16.97;;;7.00;99.90;;;;;;5001788;28;20258;-77
2021/03/31 03:36:28;;;;;;;24.53;16.47;;;7.00;99.90;;;;;;5001706;28;20223;-76
2021/03/31 03:38:55;;;;;;;23.20;16.93;;;7.00;99.90;;;;;;5001386;28;20207;-77
2021/03/31 03:41:21;;;;;;;24.50;17.10;;;6.90;99.90;;;;;;5001519;28;20215;-77
2021/03/31 03:43:48;;;;;;;24.23;17.57;;;6.90;99.90;;;;;;5001865;28;20665;-78
2021/03/31 03:46:15;;;;;;;24.77;18.33;;;6.90;99.90;;;;;;5000943;28;20302;-77
2021/03/31 03:48:41;;;;;;;22.93;16.63;;;6.90;99.90;;;;;;5000330;28;20591;-77
2021/03/31 03:51:10;;;;;;;22.63;15.73;;;6.90;99.90;;;;;;5001478;28;20215;-76
2021/03/31 03:53:38;;;;;;;21.10;15.70;;;6.80;99.90;;;;;;5001417;28;20265;-76
2021/03/31 03:56:10;;;;;;;23.93;16.57;;;6.90;99.90;;;;;;5000780;28;20285;-77
2021/03/31 03:58:36;;;;;;;22.40;16.67;;;6.80;99.90;;;;;;5001514;28;20207;-76
2021/03/31 04:01:03;;;;;;;21.80;16.10;;;6.80;99.90;;;;;;5001213;28;20211;-77
2021/03/31 04:03:29;;;;;;;22.03;14.77;;;6.80;99.90;;;;;;5000658;28;20597;-77
2021/03/31 04:05:55;;;;;;;21.70;15.83;;;6.80;99.90;;;;;;5001776;28;20264;-76
2021/03/31 04:08:22;;;;;;;20.30;14.97;;;6.80;99.90;;;;;;5018717;28;20202;-76
2021/03/31 04:10:53;;;;;;;20.40;14.90;;;6.80;99.90;;;;;;5004803;28;20211;-77
2021/03/31 04:13:20;;;;;;;21.03;15.80;;;6.80;99.90;;;;;;5005012;28;20196;-77
2021/03/31 04:15:50;;;;;;;28.80;19.80;;;6.80;99.90;;;;;;5005256;28;20357;-77
2021/03/31 04:18:17;;;;;;;25.57;17.83;;;6.80;99.90;;;;;;5004411;28;20866;-77
2021/03/31 04:20:45;;;;;;;28.37;19.57;;;6.70;99.90;;;;;;5004249;28;20203;-77
2021/03/31 04:23:12;;;;;;;27.40;18.50;;;6.70;99.90;;;;;;5004218;28;20207;-77
2021/03/31 04:25:38;;;;;;;24.20;16.47;;;6.60;99.90;;;;;;5005385;28;20200;-77
2021/03/31 04:28:09;;;;;;;25.23;17.30;;;6.60;99.90;;;;;;5005037;28;20203;-77
2021/03/31 04:30:36;;;;;;;25.50;18.03;;;6.60;99.90;;;;;;5004375;28;20214;-77
2021/03/31 04:33:04;;;;;;;25.20;17.70;;;6.60;99.90;;;;;;5005395;28;20508;-77
2021/03/31 04:35:30;;;;;;;23.27;16.97;;;6.60;99.90;;;;;;5004242;28;20209;-77
2021/03/31 04:38:07;;;;;;;23.83;16.83;;;6.60;99.90;;;;;;5004337;28;20647;-77
2021/03/31 04:40:45;;;;;;;23.50;17.37;;;6.60;99.90;;;;;;5004627;28;20370;-77
2021/03/31 04:43:12;;;;;;;24.77;17.67;;;6.60;99.90;;;;;;5004237;28;20215;-78
2021/03/31 04:45:38;;;;;;;23.83;15.67;;;6.50;99.90;;;;;;5003744;28;20219;-77
2021/03/31 04:48:05;;;;;;;22.40;16.07;;;6.50;99.90;;;;;;5004364;28;20203;-77
2021/03/31 04:50:32;;;;;;;24.00;16.43;;;6.50;99.90;;;;;;5004189;28;20218;-77
2021/03/31 04:52:58;;;;;;;24.53;16.63;;;6.40;99.90;;;;;;5004035;28;20198;-77
2021/03/31 04:55:24;;;;;;;23.53;16.00;;;6.40;99.90;;;;;;5004424;28;20253;-77
2021/03/31 04:57:51;;;;;;;24.20;15.93;;;6.40;99.90;;;;;;5005037;28;20231;-79
2021/03/31 05:00:19;;;;;;;25.07;17.17;;;6.40;99.90;;;;;;5004033;28;20223;-77
2021/03/31 05:02:45;;;;;;;23.80;17.90;;;6.40;99.90;;;;;;5003739;28;20250;-77
2021/03/31 05:05:12;;;;;;;28.60;18.10;;;6.40;99.90;;;;;;5003885;28;20203;-77
2021/03/31 05:07:39;;;;;;;25.47;17.37;;;6.40;99.90;;;;;;5013938;28;20206;-76
2021/03/31 05:10:06;;;;;;;25.97;18.70;;;6.40;99.90;;;;;;5010739;28;20214;-77
2021/03/31 05:12:32;;;;;;;30.00;20.33;;;6.40;99.90;;;;;;5003288;28;20203;-76
2021/03/31 05:14:59;;;;;;;30.40;20.20;;;6.40;99.90;;;;;;5004161;28;20207;-77
2021/03/31 05:17:26;;;;;;;36.57;24.27;;;6.30;99.90;;;;;;5003803;28;20219;-77
2021/03/31 05:19:52;;;;;;;33.00;22.83;;;6.30;99.90;;;;;;5004053;28;20223;-77
2021/03/31 05:22:18;;;;;;;34.73;22.77;;;6.40;99.90;;;;;;5003920;28;20203;-77
2021/03/31 05:24:45;;;;;;;32.53;21.07;;;6.30;99.90;;;;;;5003931;28;20231;-77
2021/03/31 05:27:11;;;;;;;30.33;20.57;;;6.30;99.90;;;;;;5003153;28;20705;-77
2021/03/31 05:29:37;;;;;;;32.23;21.83;;;6.30;99.90;;;;;;5003769;28;20534;-76
2021/03/31 05:32:04;;;;;;;30.40;20.77;;;6.30;99.90;;;;;;5003764;28;20201;-76
2021/03/31 05:34:31;;;;;;;30.27;21.67;;;6.30;99.90;;;;;;5002718;28;20218;-77
2021/03/31 05:36:57;;;;;;;35.97;22.77;;;6.30;99.90;;;;;;5003896;28;20238;-77
2021/03/31 05:39:24;;;;;;;31.17;20.97;;;6.30;99.90;;;;;;5003119;28;20210;-76
2021/03/31 05:41:50;;;;;;;34.77;23.10;;;6.30;99.90;;;;;;5003397;28;20199;-76
2021/03/31 05:44:17;;;;;;;32.83;22.17;;;6.30;99.90;;;;;;5003591;28;20207;-76
2021/03/31 05:46:43;;;;;;;33.77;22.53;;;6.30;99.90;;;;;;5003574;28;20275;-75
2021/03/31 05:49:10;;;;;;;34.80;22.07;;;6.30;99.90;;;;;;5002806;28;20214;-77
2021/03/31 05:51:37;;;;;;;33.23;22.10;;;6.30;99.90;;;;;;5003435;28;20215;-76
2021/03/31 05:54:04;;;;;;;30.97;20.87;;;6.30;99.90;;;;;;5003483;28;20210;-76
2021/03/31 05:56:32;;;;;;;32.97;20.93;;;6.40;99.90;;;;;;5002515;28;20748;-76
2021/03/31 05:58:58;;;;;;;28.80;19.90;;;6.40;99.90;;;;;;5004056;28;20243;-77
2021/03/31 06:01:26;;;;;;;33.57;23.47;;;6.40;99.90;;;;;;5003528;28;20223;-75
2021/03/31 06:03:56;;;;;;;34.77;22.83;;;6.40;99.90;;;;;;5002794;28;20210;-78
2021/03/31 06:06:22;;;;;;;37.87;23.87;;;6.40;99.90;;;;;;5003053;28;20212;-78
2021/03/31 06:08:49;;;;;;;38.23;24.83;;;6.40;99.90;;;;;;5005459;28;20598;-78
2021/03/31 06:11:17;;;;;;;40.60;24.37;;;6.40;99.90;;;;;;5002053;28;20196;-78
2021/03/31 06:13:52;;;;;;;39.87;25.00;;;6.40;99.90;;;;;;5002716;28;20215;-77
2021/03/31 06:16:33;;;;;;;41.50;26.73;;;6.50;99.90;;;;;;5001971;28;20209;-78
2021/03/31 06:19:15;;;;;;;36.77;25.17;;;6.50;99.90;;;;;;5002956;28;20214;-77
2021/03/31 06:21:43;;;;;;;39.43;25.63;;;6.60;99.90;;;;;;5002509;28;20211;-77
2021/03/31 06:24:20;;;;;;;41.53;25.73;;;6.60;99.90;;;;;;5001992;28;20682;-78
2021/03/31 06:26:46;;;;;;;44.40;28.43;;;6.70;99.90;;;;;;5002437;28;20195;-78
2021/03/31 06:29:13;;;;;;;42.80;28.43;;;6.80;99.90;;;;;;5002773;28;20211;-75
2021/03/31 06:31:41;;;;;;;53.77;31.63;;;6.80;99.90;;;;;;5001240;28;20199;-77
2021/03/31 06:34:09;;;;;;;51.20;32.20;;;7.00;99.90;;;;;;5002535;28;20210;-78
2021/03/31 06:36:40;;;;;;;46.37;30.50;;;7.00;99.90;;;;;;5002575;28;20250;-77
2021/03/31 06:39:25;;;;;;;52.80;34.00;;;7.10;99.90;;;;;;5002183;28;20218;-77
2021/03/31 06:41:57;;;;;;;54.63;32.77;;;7.20;99.90;;;;;;5002153;28;20637;-77
2021/03/31 06:44:40;;;;;;;53.37;32.57;;;7.30;99.90;;;;;;5001688;28;20281;-78
2021/03/31 06:47:11;;;;;;;50.70;31.60;;;7.40;99.90;;;;;;5002085;28;20207;-78
2021/03/31 06:49:38;;;;;;;61.43;35.13;;;7.50;99.90;;;;;;5001269;28;20273;-78
2021/03/31 06:52:06;;;;;;;54.70;34.50;;;7.60;99.90;;;;;;5001455;28;20203;-78
2021/03/31 06:54:43;;;;;;;59.33;36.00;;;7.70;99.90;;;;;;5001340;28;20203;-77
2021/03/31 06:57:09;;;;;;;55.90;34.13;;;7.80;99.90;;;;;;5001613;28;20285;-76
2021/03/31 06:59:36;;;;;;;55.03;34.40;;;7.90;99.90;;;;;;5001085;28;20230;-77
2021/03/31 07:02:04;;;;;;;58.63;35.30;;;8.00;99.90;;;;;;5001304;28;20231;-78
2021/03/31 07:04:32;;;;;;;59.07;34.10;;;8.00;99.90;;;;;;5001093;28;20216;-78
2021/03/31 07:07:00;;;;;;;62.30;36.63;;;8.20;99.90;;;;;;5003111;28;20261;-78
2021/03/31 07:09:26;;;;;;;56.00;34.50;;;8.30;99.90;;;;;;5000395;28;20203;-78
2021/03/31 07:11:53;;;;;;;53.47;34.07;;;8.40;99.90;;;;;;5000233;28;20229;-78
2021/03/31 07:14:21;;;;;;;56.73;35.40;;;8.50;99.90;;;;;;5001106;28;20519;-77
2021/03/31 07:16:49;;;;;;;59.93;34.47;;;8.60;99.90;;;;;;5000888;28;20223;-78
2021/03/31 07:19:17;;;;;;;59.37;34.43;;;8.80;99.90;;;;;;4999892;28;20203;-77
2021/03/31 07:21:43;;;;;;;55.77;33.67;;;8.90;99.90;;;;;;5000699;28;20195;-78
2021/03/31 07:24:14;;;;;;;52.77;32.13;;;9.10;99.90;;;;;;5010412;28;20210;-78
2021/03/31 07:26:42;;;;;;;56.87;34.53;;;9.30;99.90;;;;;;5018491;28;20887;-77
2021/03/31 07:29:11;;;;;;;55.53;33.27;;;9.40;99.90;;;;;;5019861;28;20199;-77
2021/03/31 07:31:42;;;;;;;55.53;31.60;;;9.60;99.90;;;;;;5019857;28;20202;-77
2021/03/31 07:34:16;;;;;;;49.80;30.30;;;9.70;99.90;;;;;;5020375;28;20210;-77
2021/03/31 07:36:44;;;;;;;53.00;31.47;;;9.80;99.90;;;;;;5008991;28;20694;-78
2021/03/31 07:39:12;;;;;;;46.70;28.93;;;10.00;99.90;;;;;;5001052;28;20266;-78
2021/03/31 07:41:39;;;;;;;52.30;31.53;;;10.10;99.90;;;;;;5000390;28;20518;-78
2021/03/31 07:44:08;;;;;;;50.13;29.87;;;10.20;99.90;;;;;;5023717;28;20260;-77
2021/03/31 07:46:39;;;;;;;53.97;32.23;;;10.50;99.90;;;;;;5024439;28;20217;-77
2021/03/31 07:49:06;;;;;;;47.10;30.40;;;10.60;99.90;;;;;;5024050;28;20260;-77
2021/03/31 07:51:33;;;;;;;51.83;30.60;;;10.80;99.90;;;;;;5016752;28;20213;-78
2021/03/31 07:54:01;;;;;;;46.87;29.20;;;10.90;99.90;;;;;;5004395;28;20203;-77
2021/03/31 07:56:34;;;;;;;44.17;28.70;;;11.20;99.90;;;;;;5003370;28;21020;-77
2021/03/31 07:59:15;;;;;;;47.60;27.97;;;11.30;99.90;;;;;;5004297;28;20211;-78
2021/03/31 08:01:45;;;;;;;42.57;27.33;;;11.40;99.90;;;;;;5003592;28;20229;-78
2021/03/31 08:04:13;;;;;;;42.73;28.30;;;11.50;99.90;;;;;;5003728;28;21111;-77
2021/03/31 08:06:40;;;;;;;49.60;30.07;;;11.70;99.90;;;;;;5002426;28;20203;-77
2021/03/31 08:09:08;;;;;;;41.07;27.20;;;11.80;99.90;;;;;;5003617;28;20203;-78
2021/03/31 08:12:08;;;;;;;43.73;28.30;;;11.90;99.90;;;;;;5010740;28;20249;-77
2021/03/31 08:14:38;;;;;;;42.90;29.00;;;12.10;99.90;;;;;;5023157;28;20553;-77
2021/03/31 08:17:07;;;;;;;47.00;28.93;;;12.30;99.90;;;;;;5003615;28;20274;-78
2021/03/31 08:19:37;;;;;;;45.33;29.50;;;12.50;99.90;;;;;;5002945;28;20865;-79
2021/03/31 08:22:20;;;;;;;46.17;28.90;;;12.80;99.90;;;;;;5004250;28;20219;-77
2021/03/31 08:24:48;;;;;;;44.07;27.60;;;13.10;99.90;;;;;;5003904;28;20215;-78
2021/03/31 08:27:15;;;;;;;46.30;28.37;;;13.50;99.90;;;;;;5003647;28;20851;-78
2021/03/31 08:29:48;;;;;;;42.57;28.23;;;13.90;99.90;;;;;;5003372;28;20203;-78
2021/03/31 08:32:16;;;;;;;47.97;28.00;;;14.30;99.90;;;;;;5003643;28;20215;-78
2021/03/31 08:34:44;;;;;;;46.53;28.90;;;14.70;99.90;;;;;;5003953;28;20207;-78
2021/03/31 08:37:20;;;;;;;44.87;27.83;;;15.20;99.90;;;;;;5002772;28;20346;-78
2021/03/31 08:39:46;;;;;;;46.43;28.17;;;15.50;99.90;;;;;;5023664;28;20221;-78
2021/03/31 08:42:13;;;;;;;45.00;28.77;;;15.90;99.90;;;;;;5023177;28;20218;-78
2021/03/31 08:44:43;;;;;;;40.77;27.60;;;16.20;99.90;;;;;;5022356;28;20210;-78
2021/03/31 08:47:12;;;;;;;40.13;27.60;;;16.50;99.90;;;;;;5011340;28;20211;-78
2021/03/31 08:49:40;;;;;;;42.93;28.13;;;16.70;99.90;;;;;;5003329;28;20549;-78
2021/03/31 08:52:09;;;;;;;46.97;28.63;;;17.00;99.90;;;;;;5003029;28;20211;-78
2021/03/31 08:54:36;;;;;;;42.07;28.13;;;17.30;99.90;;;;;;5002920;28;20277;-77
2021/03/31 08:57:05;;;;;;;45.40;30.73;;;17.50;99.90;;;;;;5003925;28;20246;-76
2021/03/31 08:59:33;;;;;;;43.10;28.60;;;17.80;99.90;;;;;;5002680;28;20202;-76
2021/03/31 09:01:59;;;;;;;40.17;28.73;;;18.00;99.90;;;;;;5004347;28;20259;-75
2021/03/31 09:04:26;;;;;;;47.97;29.80;;;18.20;99.90;;;;;;5003443;28;20203;-76
2021/03/31 09:06:55;;;;;;;45.67;28.42;;;18.50;99.90;;;;;;5007885;28;20202;-76
2021/03/31 09:09:22;;;;;;;41.08;26.65;;;18.60;99.90;;;;;;5007954;28;20627;-76
2021/03/31 09:11:49;;;;;;;47.72;31.98;;;18.90;99.90;;;;;;5003218;28;20888;-76
2021/03/31 09:14:17;;;;;;;44.05;30.02;;;19.00;99.90;;;;;;5003154;28;20198;-76
2021/03/31 09:16:54;;;;;;;46.90;28.80;;;19.20;99.90;;;;;;5003299;28;20210;-76
2021/03/31 09:19:22;;;;;;;52.28;31.63;;;19.40;99.90;;;;;;5002308;28;20203;-78
2021/03/31 09:21:49;;;;;;;48.42;32.22;;;19.50;99.90;;;;;;5002922;28;20215;-78
2021/03/31 09:24:16;;;;;;;47.00;31.65;;;19.70;99.90;;;;;;5002560;28;20873;-77
2021/03/31 09:26:55;;;;;;;45.00;29.80;;;19.80;99.90;;;;;;5002104;28;20207;-76
2021/03/31 09:29:22;;;;;;;41.95;29.38;;;20.10;99.90;;;;;;5002627;28;20219;-77
2021/03/31 09:31:49;;;;;;;40.28;28.52;;;20.30;99.90;;;;;;5002501;28;20666;-76
2021/03/31 09:34:16;;;;;;;47.38;28.88;;;20.40;99.90;;;;;;5002404;28;20586;-75
2021/03/31 09:36:42;;;;;;;41.80;28.40;;;20.60;99.90;;;;;;5003103;28;20670;-76
2021/03/31 09:39:09;;;;;;;42.47;29.30;;;20.60;99.90;;;;;;5003725;28;20595;-76
2021/03/31 09:41:38;;;;;;;39.92;27.85;;;20.70;99.90;;;;;;5005791;28;20208;-76
2021/03/31 09:44:05;;;;;;;44.45;27.10;;;20.80;99.90;;;;;;5023291;28;20210;-75
2021/03/31 09:46:32;;;;;;;35.65;24.42;;;20.90;99.90;;;;;;5021711;28;20203;-75
2021/03/31 09:48:59;;;;;;;35.55;24.40;;;21.00;99.90;;;;;;5002537;28;20609;-76
2021/03/31 09:51:25;;;;;;;36.17;24.77;;;21.20;99.90;;;;;;5002535;28;20196;-77
2021/03/31 09:53:52;;;;;;;34.78;24.20;;;21.40;99.90;;;;;;5002646;28;20215;-75
2021/03/31 09:56:19;;;;;;;38.30;26.15;;;21.50;99.90;;;;;;5002438;28;20254;-76
2021/03/31 09:58:49;;;;;;;41.17;26.83;;;21.70;99.90;;;;;;5002388;28;20238;-76
2021/03/31 10:01:17;;;;;;;39.78;26.15;;;21.70;99.90;;;;;;5001446;28;20919;-78
2021/03/31 10:03:45;;;;;;;36.47;26.48;;;21.90;99.90;;;;;;5002113;28;20203;-77
2021/03/31 10:06:16;;;;;;;33.53;24.38;;;22.00;99.90;;;;;;5001036;28;20219;-77
2021/03/31 10:08:43;;;;;;;36.88;26.17;;;22.10;99.90;;;;;;5004074;28;20242;-77
2021/03/31 10:11:24;;;;;;;36.50;24.88;;;22.20;99.90;;;;;;5002048;28;20265;-77
2021/03/31 10:13:52;;;;;;;36.55;23.70;;;22.30;99.90;;;;;;5001799;28;20607;-77
2021/03/31 10:16:18;;;;;;;30.70;22.50;;;22.50;99.90;;;;;;5001208;28;20861;-77
2021/03/31 10:18:45;;;;;;;31.20;22.95;;;22.60;99.90;;;;;;5002160;28;21058;-77
2021/03/31 10:21:12;;;;;;;31.75;22.77;;;22.70;99.90;;;;;;5001897;28;20499;-78
2021/03/31 10:23:44;;;;;;;31.23;21.48;;;22.70;99.90;;;;;;5001414;28;20265;-77
2021/03/31 10:26:21;;;;;;;31.50;22.48;;;22.90;99.90;;;;;;5002079;28;20191;-76
2021/03/31 10:28:48;;;;;;;29.80;21.63;;;22.90;99.90;;;;;;5001937;28;20199;-77
2021/03/31 10:31:19;;;;;;;28.40;21.05;;;23.00;99.90;;;;;;5001177;28;20195;-77
2021/03/31 10:33:46;;;;;;;33.20;23.10;;;23.10;99.90;;;;;;5001677;28;20199;-77
2021/03/31 10:36:52;;;;;;;27.25;21.10;;;23.20;99.90;;;;;;5000744;28;20277;-77
2021/03/31 10:48:14;;;;;;;34.33;23.30;;;23.40;99.90;;;;;;5001407;28;20287;-77
2021/03/31 10:50:47;;;;;;;33.33;23.70;;;23.50;99.90;;;;;;5000703;28;20275;-76
2021/03/31 10:53:13;;;;;;;31.95;22.10;;;23.50;99.90;;;;;;5000939;28;20207;-78
2021/03/31 10:55:42;;;;;;;29.67;21.60;;;23.60;99.90;;;;;;5000807;28;20231;-77
2021/03/31 10:58:09;;;;;;;36.65;25.27;;;23.60;99.90;;;;;;5000942;28;20235;-78
2021/03/31 11:00:36;;;;;;;32.80;24.10;;;23.70;99.90;;;;;;5000868;28;20225;-77
2021/03/31 11:03:03;;;;;;;30.50;23.10;;;23.80;99.90;;;;;;5001237;28;20289;-77
2021/03/31 11:05:30;;;;;;;35.60;27.40;;;23.80;99.90;;;;;;4999984;28;20682;-77
2021/03/31 11:07:57;;;;;;;36.17;26.08;;;23.90;99.90;;;;;;5013683;28;20203;-77
2021/03/31 11:10:23;;;;;;;40.83;28.55;;;23.90;99.90;;;;;;5020244;28;20477;-77
2021/03/31 11:12:49;;;;;;;37.38;27.83;;;24.00;99.90;;;;;;5000089;28;20226;-77
2021/03/31 11:15:18;;;;;;;37.65;28.60;;;24.10;99.90;;;;;;5000867;28;20207;-78
2021/03/31 11:17:54;;;;;;;32.00;25.27;;;24.20;99.90;;;;;;5000209;28;20503;-76
2021/03/31 11:20:30;;;;;;;34.70;25.40;;;24.20;99.90;;;;;;4999956;28;20252;-77
2021/03/31 11:25:49;;;;;;;39.53;29.70;;;24.40;99.90;;;;;;5001401;28;20514;-77
2021/03/31 11:28:16;;;;;;;38.80;29.10;;;24.40;99.90;;;;;;5000901;28;20191;-78
2021/03/31 11:30:42;;;;;;;36.45;25.48;;;24.40;99.90;;;;;;5000593;28;20242;-76
2021/03/31 11:33:08;;;;;;;33.88;25.35;;;24.50;99.90;;;;;;5000675;28;20207;-78
2021/03/31 11:35:36;;;;;;;37.28;27.52;;;24.60;99.90;;;;;;5000658;28;20708;-77
2021/03/31 11:38:02;;;;;;;40.72;29.35;;;24.70;99.90;;;;;;5001136;28;20226;-78
2021/03/31 11:40:29;;;;;;;42.45;28.38;;;24.80;99.90;;;;;;5000822;28;20261;-77
2021/03/31 11:42:56;;;;;;;40.58;31.38;;;24.90;99.90;;;;;;5000831;28;20565;-78
2021/03/31 11:45:22;;;;;;;40.28;31.58;;;25.10;99.90;;;;;;5000612;28;20284;-78
2021/03/31 11:47:48;;;;;;;45.33;34.47;;;25.10;99.90;;;;;;4999913;28;20203;-77
2021/03/31 11:50:15;;;;;;;54.63;35.95;;;25.00;99.90;;;;;;5000141;28;20743;-78
2021/03/31 11:52:42;;;;;;;47.58;32.58;;;24.90;99.90;;;;;;5000121;28;20219;-77
2021/03/31 11:55:09;;;;;;;53.53;35.05;;;24.90;99.90;;;;;;5000075;28;20297;-76
2021/03/31 11:57:35;;;;;;;45.72;32.33;;;25.00;99.90;;;;;;5000186;28;20699;-78
2021/03/31 12:00:05;;;;;;;51.88;32.55;;;25.00;99.90;;;;;;5000434;28;20234;-78
2021/03/31 12:02:31;;;;;;;42.45;29.70;;;25.00;99.90;;;;;;4999407;28;20219;-78
2021/03/31 12:04:58;;;;;;;36.90;27.60;;;25.10;99.90;;;;;;5000771;28;20207;-76
2021/03/31 12:07:24;;;;;;;35.58;25.95;;;25.20;99.90;;;;;;5007492;28;20199;-77
2021/03/31 12:09:52;;;;;;;43.67;30.55;;;25.30;99.90;;;;;;5004699;28;20211;-78
2021/03/31 12:12:18;;;;;;;44.45;31.33;;;25.30;99.90;;;;;;5000498;28;20208;-77
2021/03/31 12:14:44;;;;;;;42.65;30.55;;;25.30;99.90;;;;;;4999357;28;20207;-77
2021/03/31 12:17:10;;;;;;;40.83;29.48;;;25.40;99.90;;;;;;4999263;28;20239;-77
2021/03/31 12:19:37;;;;;;;40.58;28.65;;;25.30;99.90;;;;;;5000600;28;20207;-77
2021/03/31 12:22:04;;;;;;;48.35;32.00;;;25.20;99.90;;;;;;4999545;28;20682;-77
2021/03/31 12:24:30;;;;;;;43.25;30.95;;;25.20;99.90;;;;;;5000612;28;20211;-77
2021/03/31 12:27:03;;;;;;;40.83;28.90;;;25.20;99.90;;;;;;5000563;28;20211;-78
2021/03/31 12:29:30;;;;;;;41.95;29.30;;;25.20;99.90;;;;;;5000614;28;20234;-78
2021/03/31 12:31:56;;;;;;;41.85;29.27;;;25.20;99.90;;;;;;5004349;28;20207;-77
2021/03/31 12:34:23;;;;;;;42.67;29.65;;;25.20;99.90;;;;;;5003918;28;20322;-77
2021/03/31 12:36:49;;;;;;;40.55;29.98;;;25.30;99.90;;;;;;5002886;28;20602;-76
2021/03/31 12:39:15;;;;;;;31.50;25.88;;;25.30;99.90;;;;;;5002823;28;20246;-76
2021/03/31 12:41:42;;;;;;;51.70;32.88;;;25.40;99.90;;;;;;5003548;28;20207;-77
2021/03/31 12:44:09;;;;;;;40.95;29.23;;;25.40;99.90;;;;;;5002878;28;20219;-77
2021/03/31 12:46:35;;;;;;;41.30;30.33;;;25.30;99.90;;;;;;5003484;28;20203;-78
2021/03/31 12:49:01;;;;;;;45.10;30.67;;;25.30;99.90;;;;;;5002592;28;20234;-76
2021/03/31 12:51:33;;;;;;;46.00;31.08;;;25.20;99.90;;;;;;5001737;28;20206;-77
2021/03/31 12:54:06;;;;;;;48.60;30.08;;;25.20;99.90;;;;;;5003413;28;20559;-76